createdAt,value
2022-08-28T00:00:15.713Z,21.69
2022-08-28T00:02:42.435Z,21.67
2022-08-28T00:05:11.048Z,21.66
2022-08-28T00:07:38.430Z,21.63
2022-08-28T00:10:06.663Z,21.62
2022-08-28T00:12:34.764Z,21.56
2022-08-28T00:15:01.646Z,21.59
2022-08-28T00:17:28.363Z,21.53
2022-08-28T00:19:55.034Z,21.52
2022-08-28T00:22:21.674Z,21.58
2022-08-28T00:24:48.312Z,21.60
2022-08-28T00:27:33.429Z,21.50
2022-08-28T00:30:00.195Z,21.55
2022-08-28T00:32:27.043Z,21.31
2022-08-28T00:34:53.834Z,21.39
2022-08-28T00:37:20.470Z,21.45
2022-08-28T00:39:51.494Z,21.41
2022-08-28T00:42:18.334Z,21.39
2022-08-28T00:44:45.433Z,21.31
2022-08-28T00:47:12.690Z,21.26
2022-08-28T00:49:47.761Z,21.32
2022-08-28T00:52:16.055Z,21.28
2022-08-28T00:55:05.914Z,21.37
2022-08-28T00:57:39.157Z,21.41
2022-08-28T01:00:09.581Z,21.30
2022-08-28T01:02:36.518Z,21.23
2022-08-28T01:05:03.967Z,21.20
2022-08-28T01:07:30.737Z,21.06
2022-08-28T01:09:58.362Z,20.97
2022-08-28T01:12:29.632Z,21.02
2022-08-28T01:15:00.260Z,21.06
2022-08-28T01:17:31.256Z,21.08
2022-08-28T01:20:03.045Z,21.15
2022-08-28T01:22:54.075Z,21.12
2022-08-28T01:25:24.224Z,21.10
2022-08-28T01:27:51.631Z,20.97
2022-08-28T01:30:22.518Z,20.90
2022-08-28T01:32:53.731Z,20.93
2022-08-28T01:35:25.760Z,20.95
2022-08-28T01:37:53.333Z,20.93
2022-08-28T01:40:30.070Z,20.86
2022-08-28T01:43:16.130Z,20.90
2022-08-28T01:45:45.856Z,20.91
2022-08-28T01:48:14.595Z,20.90
2022-08-28T01:50:42.540Z,20.94
2022-08-28T01:53:12.382Z,20.91
2022-08-28T01:55:39.618Z,20.86
2022-08-28T01:58:07.387Z,20.78
2022-08-28T02:00:37.012Z,20.78
2022-08-28T02:03:03.901Z,20.81
2022-08-28T02:05:32.662Z,20.73
2022-08-28T02:08:01.582Z,20.72
2022-08-28T02:10:30.646Z,20.65
2022-08-28T02:12:59.241Z,20.65
2022-08-28T02:15:27.381Z,20.70
2022-08-28T02:17:54.235Z,20.73
2022-08-28T02:20:21.318Z,20.74
2022-08-28T02:22:48.054Z,20.78
2022-08-28T02:25:15.129Z,20.74
2022-08-28T02:27:41.796Z,20.56
2022-08-28T02:30:11.737Z,20.55
2022-08-28T02:32:38.979Z,20.55
2022-08-28T02:35:12.042Z,20.52
2022-08-28T02:37:39.713Z,20.44
2022-08-28T02:40:07.054Z,20.24
2022-08-28T02:42:34.011Z,20.42
2022-08-28T02:45:00.945Z,20.36
2022-08-28T02:47:27.610Z,19.92
2022-08-28T02:49:54.293Z,19.57
2022-08-28T02:52:22.422Z,19.80
2022-08-28T02:54:49.025Z,19.95
2022-08-28T02:57:16.122Z,19.77
2022-08-28T02:59:43.964Z,19.95
2022-08-28T03:02:10.595Z,20.04
2022-08-28T03:04:38.354Z,20.09
2022-08-28T03:07:07.480Z,20.15
2022-08-28T03:09:34.062Z,20.17
2022-08-28T03:12:00.759Z,20.19
2022-08-28T03:14:27.802Z,20.18
2022-08-28T03:16:54.533Z,20.27
2022-08-28T03:19:21.231Z,20.23
2022-08-28T03:21:47.838Z,20.11
2022-08-28T03:24:15.116Z,20.17
2022-08-28T03:26:42.455Z,20.18
2022-08-28T03:29:09.056Z,20.24
2022-08-28T03:31:36.201Z,20.27
2022-08-28T03:34:03.140Z,20.31
2022-08-28T03:36:29.856Z,20.16
2022-08-28T03:38:59.303Z,20.18
2022-08-28T03:41:29.144Z,20.18
2022-08-28T03:43:57.352Z,20.17
2022-08-28T03:46:25.118Z,20.21
2022-08-28T03:48:52.621Z,20.29
2022-08-28T03:51:29.680Z,20.32
2022-08-28T03:53:58.316Z,20.28
2022-08-28T03:56:26.501Z,20.26
2022-08-28T03:58:57.406Z,20.26
2022-08-28T04:01:24.381Z,20.25
2022-08-28T04:03:51.446Z,20.22
2022-08-28T04:06:19.724Z,20.21
2022-08-28T04:08:47.198Z,20.18
2022-08-28T04:11:13.801Z,20.27
2022-08-28T04:13:41.661Z,20.18
2022-08-28T04:16:11.420Z,20.18
2022-08-28T04:18:40.336Z,20.14
2022-08-28T04:21:12.923Z,20.10
2022-08-28T04:23:43.201Z,20.11
2022-08-28T04:26:13.004Z,20.12
2022-08-28T04:28:39.834Z,20.09
2022-08-28T04:31:08.224Z,20.13
2022-08-28T04:33:35.850Z,20.06
2022-08-28T04:36:05.336Z,20.04
2022-08-28T04:38:31.994Z,20.00
2022-08-28T04:40:58.926Z,20.04
2022-08-28T04:43:25.718Z,19.97
2022-08-28T04:45:52.266Z,20.02
2022-08-28T04:48:19.526Z,20.00
2022-08-28T04:50:48.946Z,19.94
2022-08-28T04:53:18.285Z,19.90
2022-08-28T04:55:54.600Z,19.92
2022-08-28T04:58:24.005Z,19.93
2022-08-28T05:00:52.536Z,19.90
2022-08-28T05:03:19.444Z,19.89
2022-08-28T05:05:53.030Z,19.92
2022-08-28T05:08:22.867Z,19.91
2022-08-28T05:10:50.847Z,19.98
2022-08-28T05:13:21.122Z,19.87
2022-08-28T05:15:50.294Z,19.87
2022-08-28T05:18:19.229Z,19.92
2022-08-28T05:20:47.977Z,19.91
2022-08-28T05:23:16.635Z,19.89
2022-08-28T05:25:46.649Z,19.83
2022-08-28T05:28:14.595Z,19.91
2022-08-28T05:30:44.787Z,19.94
2022-08-28T05:33:14.366Z,19.96
2022-08-28T05:35:43.837Z,19.98
2022-08-28T05:38:12.565Z,19.99
2022-08-28T05:40:45.256Z,20.00
2022-08-28T05:43:14.313Z,20.07
2022-08-28T05:45:41.201Z,20.13
2022-08-28T05:48:08.281Z,20.16
2022-08-28T05:50:39.099Z,20.20
2022-08-28T05:53:09.743Z,20.25
2022-08-28T05:55:40.452Z,20.33
2022-08-28T05:58:25.611Z,20.43
2022-08-28T06:00:52.200Z,20.47
2022-08-28T06:03:18.731Z,20.53
2022-08-28T06:05:45.393Z,20.58
2022-08-28T06:08:12.149Z,20.62
2022-08-28T06:10:46.883Z,20.64
2022-08-28T06:13:17.627Z,20.66
2022-08-28T06:15:46.650Z,20.66
2022-08-28T06:18:14.783Z,20.65
2022-08-28T06:20:45.334Z,20.70
2022-08-28T06:23:15.880Z,20.74
2022-08-28T06:25:51.586Z,20.81
2022-08-28T06:28:23.403Z,20.81
2022-08-28T06:31:18.376Z,20.83
2022-08-28T06:33:37.805Z,20.86
2022-08-28T06:36:05.768Z,20.80
2022-08-28T06:38:32.394Z,20.84
2022-08-28T06:40:59.998Z,20.90
2022-08-28T06:43:29.078Z,20.97
2022-08-28T06:45:57.689Z,20.98
2022-08-28T06:48:27.508Z,21.03
2022-08-28T06:50:55.971Z,21.04
2022-08-28T06:53:25.668Z,21.05
2022-08-28T06:56:08.468Z,21.07
2022-08-28T06:58:37.685Z,21.13
2022-08-28T07:01:14.378Z,21.19
2022-08-28T07:03:42.736Z,21.22
2022-08-28T07:06:13.703Z,21.24
2022-08-28T07:08:41.877Z,21.26
2022-08-28T07:11:25.991Z,21.31
2022-08-28T07:13:54.128Z,21.32
2022-08-28T07:16:25.691Z,21.39
2022-08-28T07:18:53.790Z,21.46
2022-08-28T07:21:21.037Z,21.33
2022-08-28T07:23:48.584Z,21.46
2022-08-28T07:26:20.374Z,21.45
2022-08-28T07:28:47.292Z,21.47
2022-08-28T07:31:18.777Z,21.48
2022-08-28T07:33:46.336Z,21.54
2022-08-28T07:36:29.149Z,21.55
2022-08-28T07:38:58.990Z,21.57
2022-08-28T07:41:28.806Z,21.57
2022-08-28T07:44:14.563Z,21.55
2022-08-28T07:46:41.530Z,21.59
2022-08-28T07:49:09.177Z,21.60
2022-08-28T07:51:35.935Z,21.63
2022-08-28T07:54:04.072Z,21.64
2022-08-28T07:56:32.038Z,21.70
2022-08-28T07:59:00.381Z,21.73
2022-08-28T08:01:30.551Z,21.94
2022-08-28T08:04:01.876Z,22.01
2022-08-28T08:06:34.136Z,21.96
2022-08-28T08:09:02.415Z,22.10
2022-08-28T08:11:31.059Z,22.15
2022-08-28T08:14:04.736Z,22.12
2022-08-28T08:16:39.067Z,22.32
2022-08-28T08:19:09.719Z,22.42
2022-08-28T08:21:37.282Z,22.52
2022-08-28T08:24:04.054Z,22.51
2022-08-28T08:26:30.925Z,22.56
2022-08-28T08:28:58.080Z,22.65
2022-08-28T08:31:28.404Z,22.75
2022-08-28T08:34:02.007Z,22.74
2022-08-28T08:36:30.099Z,22.75
2022-08-28T08:38:59.349Z,22.78
2022-08-28T08:41:43.628Z,22.83
2022-08-28T08:44:38.879Z,22.92
2022-08-28T08:47:58.110Z,22.96
2022-08-28T08:50:28.987Z,23.02
2022-08-28T08:53:14.564Z,23.15
2022-08-28T08:55:52.633Z,23.24
2022-08-28T08:58:39.654Z,23.37
2022-08-28T09:01:27.649Z,23.37
2022-08-28T09:04:22.778Z,23.29
2022-08-28T09:06:55.380Z,23.31
2022-08-28T09:09:42.232Z,23.35
2022-08-28T09:12:15.637Z,23.40
2022-08-28T09:15:10.167Z,23.54
2022-08-28T09:18:05.793Z,23.54
2022-08-28T09:20:33.401Z,23.49
2022-08-28T09:23:00.213Z,23.51
2022-08-28T09:25:45.153Z,23.66
2022-08-28T09:28:19.473Z,23.75
2022-08-28T09:30:54.732Z,23.68
2022-08-28T09:33:29.988Z,23.73
2022-08-28T09:35:56.535Z,23.81
2022-08-28T09:38:27.947Z,23.86
2022-08-28T09:41:27.164Z,23.93
2022-08-28T09:43:54.136Z,23.82
2022-08-28T09:46:24.551Z,23.85
2022-08-28T09:48:54.372Z,23.94
2022-08-28T09:51:20.975Z,23.97
2022-08-28T09:53:50.576Z,23.91
2022-08-28T09:56:29.098Z,23.87
2022-08-28T09:59:10.933Z,23.93
2022-08-28T10:01:55.217Z,24.03
2022-08-28T10:04:40.471Z,24.17
2022-08-28T10:07:25.900Z,24.36
2022-08-28T10:10:23.730Z,24.54
2022-08-28T10:13:15.450Z,24.64
2022-08-28T10:16:09.552Z,24.56
2022-08-28T10:18:56.523Z,24.61
2022-08-28T10:21:23.079Z,24.66
2022-08-28T10:24:28.524Z,24.75
2022-08-28T10:27:18.834Z,24.72
2022-08-28T10:30:08.808Z,24.67
2022-08-28T10:32:52.961Z,24.71
2022-08-28T10:35:39.958Z,24.81
2022-08-28T10:38:09.688Z,24.92
2022-08-28T10:40:49.334Z,24.97
2022-08-28T10:43:54.150Z,25.02
2022-08-28T10:46:27.438Z,25.10
2022-08-28T10:49:06.879Z,25.16
2022-08-28T10:51:44.432Z,25.47
2022-08-28T10:54:29.972Z,25.48
2022-08-28T10:57:05.503Z,25.44
2022-08-28T10:59:33.533Z,25.46
2022-08-28T11:02:13.447Z,25.60
2022-08-28T11:04:40.538Z,25.70
2022-08-28T11:07:11.210Z,25.74
2022-08-28T11:09:50.093Z,25.61
2022-08-28T11:12:16.741Z,25.75
2022-08-28T11:14:48.337Z,25.85
2022-08-28T11:17:25.498Z,25.87
2022-08-28T11:20:01.361Z,25.87
2022-08-28T11:22:37.344Z,25.92
2022-08-28T11:25:26.170Z,26.01
2022-08-28T11:28:11.609Z,26.07
2022-08-28T11:30:38.764Z,26.17
2022-08-28T11:33:08.890Z,26.24
2022-08-28T11:35:47.108Z,26.28
2022-08-28T11:38:54.074Z,26.33
2022-08-28T11:41:27.467Z,26.44
2022-08-28T11:44:09.422Z,26.49
2022-08-28T11:46:52.599Z,26.54
2022-08-28T11:49:31.640Z,26.50
2022-08-28T11:52:19.729Z,26.51
2022-08-28T11:54:52.423Z,26.65
2022-08-28T11:57:28.170Z,26.66
2022-08-28T12:00:21.531Z,26.69
2022-08-28T12:03:01.924Z,26.54
2022-08-28T12:05:31.457Z,26.64
2022-08-28T12:08:03.986Z,26.69
2022-08-28T12:10:31.678Z,26.75
2022-08-28T12:13:01.516Z,26.68
2022-08-28T12:15:29.691Z,26.75
2022-08-28T12:18:11.750Z,26.83
2022-08-28T12:20:51.074Z,27.12
2022-08-28T12:23:24.029Z,27.18
2022-08-28T12:26:00.529Z,27.17
2022-08-28T12:28:31.780Z,27.22
2022-08-28T12:31:53.549Z,27.25
2022-08-28T12:34:34.843Z,27.13
2022-08-28T12:37:03.954Z,27.19
2022-08-28T12:39:32.814Z,27.21
2022-08-28T12:42:03.482Z,27.47
2022-08-28T12:44:32.606Z,27.54
2022-08-28T12:46:59.801Z,27.45
2022-08-28T12:49:37.127Z,27.43
2022-08-28T12:52:25.682Z,27.53
2022-08-28T12:54:55.416Z,27.66
2022-08-28T12:57:24.868Z,27.66
2022-08-28T12:59:54.803Z,27.68
2022-08-28T13:02:28.831Z,27.72
2022-08-28T13:05:10.673Z,27.76
2022-08-28T13:07:49.998Z,27.77
2022-08-28T13:10:23.219Z,27.77
2022-08-28T13:12:59.795Z,27.79
2022-08-28T13:15:51.193Z,27.87
2022-08-28T13:18:41.597Z,27.99
2022-08-28T13:21:14.275Z,28.05
2022-08-28T13:23:42.345Z,28.10
2022-08-28T13:26:11.009Z,28.09
2022-08-28T13:28:43.079Z,27.98
2022-08-28T13:31:27.760Z,28.03
2022-08-28T13:34:09.283Z,28.03
2022-08-28T13:36:47.367Z,27.98
2022-08-28T13:39:18.191Z,28.04
2022-08-28T13:41:48.586Z,28.07
2022-08-28T13:44:37.030Z,28.16
2022-08-28T13:47:09.299Z,28.21
2022-08-28T13:49:36.480Z,28.18
2022-08-28T13:52:05.741Z,28.27
2022-08-28T13:54:35.213Z,28.30
2022-08-28T13:57:03.205Z,28.38
2022-08-28T13:59:30.924Z,28.45
2022-08-28T14:02:19.353Z,28.49
2022-08-28T14:04:46.230Z,28.57
2022-08-28T14:07:14.585Z,28.62
2022-08-28T14:09:42.323Z,28.63
2022-08-28T14:12:10.084Z,28.65
2022-08-28T14:14:39.847Z,28.63
2022-08-28T14:17:08.561Z,28.65
2022-08-28T14:19:35.909Z,28.71
2022-08-28T14:22:03.418Z,28.68
2022-08-28T14:24:30.243Z,28.76
2022-08-28T14:26:57.159Z,28.79
2022-08-28T14:29:23.985Z,28.86
2022-08-28T14:31:50.913Z,28.89
2022-08-28T14:34:22.697Z,28.82
2022-08-28T14:36:55.295Z,28.86
2022-08-28T14:39:26.892Z,28.82
2022-08-28T14:41:54.833Z,28.96
2022-08-28T14:44:23.559Z,29.01
2022-08-28T14:46:52.640Z,29.07
2022-08-28T14:49:25.217Z,29.05
2022-08-28T14:51:54.153Z,29.14
2022-08-28T14:54:23.321Z,29.18
2022-08-28T14:56:51.223Z,29.18
2022-08-28T14:59:24.230Z,29.21
2022-08-28T15:01:52.757Z,29.02
2022-08-28T15:04:22.850Z,28.93
2022-08-28T15:06:52.251Z,28.87
2022-08-28T15:09:19.501Z,28.91
2022-08-28T15:11:46.541Z,28.88
2022-08-28T15:14:13.605Z,28.84
2022-08-28T15:16:46.154Z,28.85
2022-08-28T15:19:16.097Z,28.85
2022-08-28T15:21:47.719Z,28.87
2022-08-28T15:24:15.959Z,28.89
2022-08-28T15:26:42.990Z,28.83
2022-08-28T15:29:12.019Z,28.79
2022-08-28T15:31:44.479Z,28.73
2022-08-28T15:34:15.549Z,28.81
2022-08-28T15:36:45.891Z,28.80
2022-08-28T15:39:40.607Z,28.79
2022-08-28T15:42:08.213Z,28.81
2022-08-28T15:44:34.829Z,28.73
2022-08-28T15:47:02.583Z,28.70
2022-08-28T15:49:32.304Z,28.70
2022-08-28T15:52:03.364Z,28.65
2022-08-28T15:54:31.893Z,28.63
2022-08-28T15:56:58.950Z,28.71
2022-08-28T15:59:47.947Z,28.70
2022-08-28T16:02:13.075Z,28.69
2022-08-28T16:04:40.542Z,28.72
2022-08-28T16:07:07.332Z,28.76
2022-08-28T16:09:34.131Z,28.79
2022-08-28T16:12:00.995Z,28.77
2022-08-28T16:14:28.023Z,28.75
2022-08-28T16:16:54.722Z,28.73
2022-08-28T16:19:21.432Z,28.74
2022-08-28T16:21:48.098Z,28.73
2022-08-28T16:24:15.207Z,28.71
2022-08-28T16:26:42.290Z,28.68
2022-08-28T16:29:08.903Z,28.66
2022-08-28T16:31:35.739Z,28.61
2022-08-28T16:34:03.135Z,28.59
2022-08-28T16:36:31.274Z,28.59
2022-08-28T16:39:00.498Z,28.57
2022-08-28T16:41:32.069Z,28.57
2022-08-28T16:43:58.945Z,28.57
2022-08-28T16:46:27.489Z,28.48
2022-08-28T16:48:54.519Z,28.33
2022-08-28T16:51:22.395Z,28.32
2022-08-28T16:53:49.028Z,28.26
2022-08-28T16:56:17.893Z,28.16
2022-08-28T16:58:45.396Z,28.05
2022-08-28T17:01:13.637Z,27.96
2022-08-28T17:03:41.941Z,27.88
2022-08-28T17:06:16.498Z,27.78
2022-08-28T17:08:44.158Z,27.58
2022-08-28T17:11:11.411Z,27.38
2022-08-28T17:13:38.431Z,27.35
2022-08-28T17:16:06.139Z,27.32
2022-08-28T17:18:33.850Z,27.27
2022-08-28T17:21:19.155Z,27.24
2022-08-28T17:23:46.562Z,27.23
2022-08-28T17:26:15.352Z,27.20
2022-08-28T17:28:43.430Z,27.07
2022-08-28T17:31:11.052Z,27.06
2022-08-28T17:33:39.637Z,27.02
2022-08-28T17:36:08.914Z,26.97
2022-08-28T17:38:48.893Z,26.81
2022-08-28T17:41:15.702Z,26.64
2022-08-28T17:43:42.299Z,26.48
2022-08-28T17:46:08.917Z,26.32
2022-08-28T17:48:36.998Z,26.15
2022-08-28T17:51:05.422Z,26.00
2022-08-28T17:53:32.389Z,26.01
2022-08-28T17:55:59.064Z,25.97
2022-08-28T17:58:25.707Z,25.91
2022-08-28T18:00:52.340Z,25.87
2022-08-28T18:03:18.994Z,25.76
2022-08-28T18:05:46.432Z,25.67
2022-08-28T18:08:13.231Z,25.75
2022-08-28T18:10:40.241Z,25.75
2022-08-28T18:13:07.059Z,25.82
2022-08-28T18:15:33.822Z,25.83
2022-08-28T18:18:04.944Z,25.74
2022-08-28T18:20:31.490Z,25.73
2022-08-28T18:22:58.333Z,25.91
2022-08-28T18:25:46.679Z,25.93
2022-08-28T18:28:22.350Z,25.86
2022-08-28T18:30:50.909Z,25.81
2022-08-28T18:33:22.447Z,25.61
2022-08-28T18:35:50.556Z,25.34
2022-08-28T18:38:19.005Z,25.44
2022-08-28T18:40:46.632Z,25.48
2022-08-28T18:43:13.933Z,25.53
2022-08-28T18:45:40.904Z,25.36
2022-08-28T18:48:08.023Z,25.37
2022-08-28T18:50:35.559Z,25.41
2022-08-28T18:53:02.239Z,25.27
2022-08-28T18:55:32.103Z,25.32
2022-08-28T18:58:00.633Z,25.46
2022-08-28T19:00:27.328Z,25.57
2022-08-28T19:02:54.517Z,25.57
2022-08-28T19:05:21.596Z,25.57
2022-08-28T19:07:48.491Z,25.58
2022-08-28T19:10:32.117Z,25.54
2022-08-28T19:13:01.207Z,25.55
2022-08-28T19:15:28.421Z,25.57
2022-08-28T19:17:55.536Z,25.57
2022-08-28T19:20:22.636Z,25.41
2022-08-28T19:22:49.685Z,25.43
2022-08-28T19:25:27.751Z,25.44
2022-08-28T19:28:01.554Z,25.50
2022-08-28T19:30:32.845Z,25.53
2022-08-28T19:33:01.368Z,25.56
2022-08-28T19:35:28.032Z,25.35
2022-08-28T19:37:55.140Z,25.29
2022-08-28T19:40:22.857Z,25.20
2022-08-28T19:42:50.001Z,25.21
2022-08-28T19:45:18.065Z,25.25
2022-08-28T19:47:45.370Z,25.27
2022-08-28T19:50:14.843Z,25.08
2022-08-28T19:52:43.996Z,25.26
2022-08-28T19:55:18.250Z,25.25
2022-08-28T19:57:46.686Z,25.29
2022-08-28T20:00:15.004Z,25.25
2022-08-28T20:02:41.935Z,25.24
2022-08-28T20:05:09.491Z,25.20
2022-08-28T20:07:36.228Z,25.20
2022-08-28T20:10:03.573Z,25.21
2022-08-28T20:12:30.217Z,25.23
2022-08-28T20:15:00.119Z,25.24
2022-08-28T20:17:29.857Z,25.18
2022-08-28T20:20:02.985Z,25.13
2022-08-28T20:22:31.851Z,25.22
2022-08-28T20:24:58.843Z,25.20
2022-08-28T20:27:25.805Z,25.19
2022-08-28T20:29:52.641Z,25.23
2022-08-28T20:32:19.612Z,25.09
2022-08-28T20:34:46.269Z,25.14
2022-08-28T20:37:13.176Z,25.02
2022-08-28T20:39:41.601Z,25.08
2022-08-28T20:42:09.731Z,25.01
2022-08-28T20:44:36.474Z,25.00
2022-08-28T20:47:03.722Z,24.75
2022-08-28T20:49:30.412Z,24.72
2022-08-28T20:51:57.577Z,24.60
2022-08-28T20:54:30.996Z,24.60
2022-08-28T20:57:02.470Z,24.58
2022-08-28T20:59:39.184Z,24.53
2022-08-28T21:02:19.089Z,24.51
2022-08-28T21:04:47.062Z,24.48
2022-08-28T21:07:15.750Z,24.54
2022-08-28T21:10:04.585Z,24.52
2022-08-28T21:12:29.973Z,24.60
2022-08-28T21:14:56.951Z,24.61
2022-08-28T21:17:29.608Z,24.61
2022-08-28T21:20:10.295Z,24.55
2022-08-28T21:22:37.326Z,24.56
2022-08-28T21:25:10.252Z,24.57
2022-08-28T21:27:37.942Z,24.65
2022-08-28T21:30:06.830Z,24.64
2022-08-28T21:32:34.461Z,24.53
2022-08-28T21:35:02.603Z,24.52
2022-08-28T21:37:29.842Z,24.52
2022-08-28T21:39:59.336Z,24.51
2022-08-28T21:42:26.893Z,24.55
2022-08-28T21:44:54.737Z,24.64
2022-08-28T21:47:23.573Z,24.65
2022-08-28T21:49:51.836Z,24.67
2022-08-28T21:52:20.340Z,24.73
2022-08-28T21:54:46.950Z,24.75
2022-08-28T21:57:15.118Z,24.67
2022-08-28T21:59:42.023Z,24.65
2022-08-28T22:02:09.236Z,24.51
2022-08-28T22:04:36.010Z,24.55
2022-08-28T22:07:02.605Z,24.46
2022-08-28T22:09:29.214Z,24.39
2022-08-28T22:11:55.876Z,24.44
2022-08-28T22:14:25.023Z,24.48
2022-08-28T22:16:52.039Z,24.50
2022-08-28T22:19:18.642Z,24.53
2022-08-28T22:22:03.616Z,24.59
2022-08-28T22:24:30.218Z,24.53
2022-08-28T22:26:57.658Z,24.53
2022-08-28T22:29:25.480Z,24.53
2022-08-28T22:31:52.679Z,24.58
2022-08-28T22:34:19.504Z,24.58
2022-08-28T22:36:46.044Z,24.50
2022-08-28T22:39:12.654Z,24.49
2022-08-28T22:41:39.300Z,24.53
2022-08-28T22:44:06.997Z,24.45
2022-08-28T22:46:33.537Z,24.37
2022-08-28T22:49:00.084Z,24.33
2022-08-28T22:51:26.650Z,24.40
2022-08-28T22:53:54.287Z,24.36
2022-08-28T22:56:21.165Z,24.38
2022-08-28T22:58:48.205Z,24.34
2022-08-28T23:01:19.653Z,24.36
2022-08-28T23:03:46.725Z,24.38
2022-08-28T23:06:13.950Z,24.35
2022-08-28T23:08:40.863Z,24.33
2022-08-28T23:11:07.870Z,24.34
2022-08-28T23:13:35.326Z,24.24
2022-08-28T23:16:02.722Z,24.16
2022-08-28T23:18:38.012Z,24.06
2022-08-28T23:21:13.220Z,24.05
2022-08-28T23:23:39.752Z,24.05
2022-08-28T23:26:12.195Z,24.08
2022-08-28T23:28:39.733Z,24.15
2022-08-28T23:31:06.618Z,24.16
2022-08-28T23:33:33.254Z,24.21
2022-08-28T23:35:59.995Z,24.26
2022-08-28T23:38:26.914Z,24.19
2022-08-28T23:40:54.002Z,24.21
2022-08-28T23:43:20.981Z,24.23
2022-08-28T23:45:47.589Z,24.23
2022-08-28T23:48:15.346Z,24.02
2022-08-28T23:50:42.420Z,24.04
2022-08-28T23:53:09.957Z,24.02
2022-08-28T23:55:37.038Z,23.98
2022-08-28T23:58:04.396Z,23.95
